createdAt,value
2018-11-13T00:01:24.671Z,31.80
2018-11-13T00:03:58.711Z,31.45
2018-11-13T00:06:36.692Z,31.37
2018-11-13T00:09:10.747Z,30.85
2018-11-13T00:11:44.768Z,31.75
2018-11-13T00:14:18.829Z,31.33
2018-11-13T00:16:52.892Z,32.20
2018-11-13T00:19:26.960Z,31.95
2018-11-13T00:22:00.989Z,31.42
2018-11-13T00:24:35.215Z,31.60
2018-11-13T00:27:09.236Z,32.00
2018-11-13T00:30:12.865Z,32.33
2018-11-13T00:32:46.933Z,32.33
2018-11-13T00:35:21.575Z,32.05
2018-11-13T00:37:55.633Z,31.20
2018-11-13T00:40:29.672Z,31.20
2018-11-13T00:43:03.723Z,31.30
2018-11-13T00:45:37.776Z,31.60
2018-11-13T00:48:20.737Z,30.90
2018-11-13T00:50:54.854Z,31.25
2018-11-13T00:53:28.948Z,30.95
2018-11-13T00:56:02.960Z,31.45
2018-11-13T00:58:36.995Z,30.68
2018-11-13T01:01:11.079Z,31.07
2018-11-13T01:03:45.172Z,31.37
2018-11-13T01:06:19.276Z,31.25
2018-11-13T01:08:53.328Z,30.43
2018-11-13T01:11:27.353Z,30.20
2018-11-13T01:14:01.380Z,30.40
2018-11-13T01:16:35.668Z,28.77
2018-11-13T01:19:09.748Z,29.00
2018-11-13T01:21:43.760Z,29.45
2018-11-13T01:24:18.116Z,28.90
2018-11-13T01:26:51.875Z,30.43
2018-11-13T01:29:25.921Z,30.32
2018-11-13T01:32:00.000Z,29.40
2018-11-13T01:34:34.083Z,30.55
2018-11-13T01:37:08.167Z,30.50
2018-11-13T01:39:42.222Z,30.77
2018-11-13T01:42:16.288Z,30.40
2018-11-13T01:44:50.384Z,29.70
2018-11-13T01:47:24.480Z,29.82
2018-11-13T01:49:58.595Z,29.10
2018-11-13T01:52:32.720Z,29.48
2018-11-13T01:55:09.495Z,29.37
2018-11-13T01:57:43.576Z,29.55
2018-11-13T02:00:20.712Z,29.80
2018-11-13T02:02:55.774Z,29.42
2018-11-13T02:05:29.833Z,29.18
2018-11-13T02:08:03.881Z,27.93
2018-11-13T02:10:37.995Z,28.25
2018-11-13T02:13:12.132Z,28.05
2018-11-13T02:15:47.243Z,28.00
2018-11-13T02:18:21.289Z,27.35
2018-11-13T02:20:55.365Z,27.20
2018-11-13T02:23:29.436Z,27.40
2018-11-13T02:26:03.573Z,26.57
2018-11-13T02:28:37.640Z,26.97
2018-11-13T02:31:11.720Z,27.87
2018-11-13T02:33:45.830Z,26.87
2018-11-13T02:36:19.884Z,26.95
2018-11-13T02:38:54.003Z,26.77
2018-11-13T02:41:28.049Z,26.85
2018-11-13T02:44:02.168Z,26.48
2018-11-13T02:46:36.228Z,26.60
2018-11-13T02:49:10.384Z,26.68
2018-11-13T02:51:44.486Z,26.25
2018-11-13T02:54:18.540Z,26.62
2018-11-13T02:56:52.684Z,26.77
2018-11-13T02:59:26.751Z,26.37
2018-11-13T03:02:00.796Z,26.87
2018-11-13T03:04:34.863Z,26.97
2018-11-13T03:07:08.952Z,26.82
2018-11-13T03:09:44.084Z,26.85
2018-11-13T03:12:18.152Z,27.00
2018-11-13T03:14:52.224Z,26.57
2018-11-13T03:17:26.350Z,26.30
2018-11-13T03:20:00.396Z,26.55
2018-11-13T03:22:34.554Z,26.35
2018-11-13T03:25:10.374Z,26.97
2018-11-13T03:27:44.430Z,26.50
2018-11-13T03:30:22.080Z,26.52
2018-11-13T03:32:56.144Z,26.93
2018-11-13T03:35:30.300Z,27.07
2018-11-13T03:38:04.452Z,26.60
2018-11-13T03:40:38.550Z,27.40
2018-11-13T03:43:12.588Z,27.05
2018-11-13T03:45:46.667Z,26.82
2018-11-13T03:48:20.732Z,26.60
2018-11-13T03:50:54.886Z,27.00
2018-11-13T03:53:28.895Z,26.68
2018-11-13T03:56:02.979Z,26.55
2018-11-13T03:58:36.999Z,27.87
2018-11-13T04:01:11.100Z,26.73
2018-11-13T04:03:45.260Z,26.87
2018-11-13T04:06:19.312Z,27.27
2018-11-13T04:08:53.323Z,26.85
2018-11-13T04:11:27.356Z,26.93
2018-11-13T04:14:01.392Z,26.93
2018-11-13T04:16:35.656Z,26.70
2018-11-13T04:19:09.724Z,26.57
2018-11-13T04:21:47.958Z,26.93
2018-11-13T04:24:22.108Z,26.33
2018-11-13T04:26:56.152Z,26.50
2018-11-13T04:29:30.303Z,26.73
2018-11-13T04:32:04.364Z,26.82
2018-11-13T04:34:38.409Z,26.85
2018-11-13T04:37:12.492Z,27.07
2018-11-13T04:39:46.492Z,26.87
2018-11-13T04:42:20.502Z,26.95
2018-11-13T04:44:54.749Z,26.70
2018-11-13T04:47:28.744Z,26.35
2018-11-13T04:50:02.872Z,26.75
2018-11-13T04:52:37.936Z,26.68
2018-11-13T04:55:12.333Z,28.00
2018-11-13T04:57:47.208Z,27.32
2018-11-13T05:00:22.500Z,27.27
2018-11-13T05:02:56.591Z,27.37
2018-11-13T05:05:30.547Z,27.22
2018-11-13T05:08:04.843Z,26.82
2018-11-13T05:10:38.876Z,26.90
2018-11-13T05:13:12.877Z,27.02
2018-11-13T05:15:46.880Z,26.62
2018-11-13T05:18:20.876Z,26.68
2018-11-13T05:20:54.896Z,26.48
2018-11-13T05:23:28.971Z,26.48
2018-11-13T05:26:03.000Z,26.42
2018-11-13T05:28:37.051Z,26.40
2018-11-13T05:31:11.055Z,27.17
2018-11-13T05:33:45.088Z,26.42
2018-11-13T05:36:20.286Z,26.42
2018-11-13T05:38:54.302Z,27.42
2018-11-13T05:41:28.361Z,26.40
2018-11-13T05:44:02.384Z,26.80
2018-11-13T05:46:36.483Z,26.25
2018-11-13T05:49:11.605Z,26.33
2018-11-13T05:51:45.635Z,26.90
2018-11-13T05:54:19.661Z,26.40
2018-11-13T05:56:53.741Z,26.33
2018-11-13T05:59:27.781Z,26.80
2018-11-13T06:02:01.961Z,26.37
2018-11-13T06:04:36.052Z,26.45
2018-11-13T06:07:10.151Z,26.27
2018-11-13T06:09:44.235Z,26.33
2018-11-13T06:12:18.245Z,26.33
2018-11-13T06:14:52.444Z,25.92
2018-11-13T06:17:26.459Z,26.07
2018-11-13T06:20:00.552Z,26.02
2018-11-13T06:22:34.562Z,26.15
2018-11-13T06:25:10.600Z,26.65
2018-11-13T06:27:45.820Z,26.48
2018-11-13T06:30:21.487Z,27.00
2018-11-13T06:32:55.548Z,27.40
2018-11-13T06:35:29.637Z,27.37
2018-11-13T06:38:03.684Z,26.57
2018-11-13T06:40:37.727Z,26.02
2018-11-13T06:43:11.733Z,26.40
2018-11-13T06:45:45.772Z,26.25
2018-11-13T06:48:19.805Z,26.65
2018-11-13T06:50:53.837Z,26.10
2018-11-13T06:53:37.965Z,26.20
2018-11-13T06:56:12.030Z,26.13
2018-11-13T06:58:46.111Z,27.22
2018-11-13T07:01:20.220Z,27.52
2018-11-13T07:03:54.234Z,26.70
2018-11-13T07:06:28.367Z,26.60
2018-11-13T07:09:02.404Z,26.65
2018-11-13T07:11:36.498Z,26.42
2018-11-13T07:14:10.516Z,27.48
2018-11-13T07:16:44.557Z,26.33
2018-11-13T07:19:18.576Z,26.85
2018-11-13T07:21:52.599Z,26.63
2018-11-13T07:24:26.697Z,26.43
2018-11-13T07:27:00.793Z,26.75
2018-11-13T07:29:34.752Z,26.10
2018-11-13T07:32:08.795Z,26.25
2018-11-13T07:34:42.836Z,26.37
2018-11-13T07:37:18.003Z,26.67
2018-11-13T07:39:52.013Z,26.57
2018-11-13T07:42:26.127Z,26.60
2018-11-13T07:45:00.143Z,26.35
2018-11-13T07:47:34.279Z,26.23
2018-11-13T07:50:09.428Z,26.48
2018-11-13T07:52:47.121Z,27.00
2018-11-13T07:55:21.139Z,26.43
2018-11-13T07:57:55.248Z,26.30
2018-11-13T08:00:29.275Z,26.73
2018-11-13T08:03:43.042Z,26.20
2018-11-13T08:06:17.039Z,26.17
2018-11-13T08:11:33.016Z,25.90
2018-11-13T08:14:07.089Z,26.47
2018-11-13T08:16:41.143Z,25.87
2018-11-13T08:19:15.157Z,26.20
2018-11-13T08:21:49.222Z,26.82
2018-11-13T08:24:23.281Z,26.03
2018-11-13T08:26:57.322Z,26.23
2018-11-13T08:29:32.226Z,25.87
2018-11-13T08:32:06.269Z,26.40
2018-11-13T08:34:40.300Z,26.53
2018-11-13T08:37:14.374Z,26.20
2018-11-13T08:39:48.352Z,26.30
2018-11-13T08:42:22.471Z,25.67
2018-11-13T08:44:56.463Z,26.90
2018-11-13T08:47:30.469Z,26.20
2018-11-13T08:50:04.722Z,25.93
2018-11-13T08:52:38.820Z,26.17
2018-11-13T08:55:13.262Z,25.97
2018-11-13T08:57:47.279Z,26.30
2018-11-13T09:00:21.272Z,26.50
2018-11-13T09:02:55.272Z,26.57
2018-11-13T09:05:29.281Z,26.33
2018-11-13T09:08:03.400Z,25.87
2018-11-13T09:10:38.902Z,26.43
2018-11-13T09:13:12.909Z,26.27
2018-11-13T09:15:47.014Z,26.13
2018-11-13T09:18:21.015Z,26.75
2018-11-13T09:20:55.259Z,25.95
2018-11-13T09:23:29.269Z,26.07
2018-11-13T09:26:03.272Z,25.93
2018-11-13T09:28:37.281Z,26.10
2018-11-13T09:31:11.420Z,26.27
2018-11-13T09:33:45.476Z,25.93
2018-11-13T09:36:19.501Z,26.52
2018-11-13T09:38:53.507Z,25.93
2018-11-13T09:41:27.503Z,25.87
2018-11-13T09:44:01.572Z,26.43
2018-11-13T09:46:35.656Z,25.88
2018-11-13T09:49:09.663Z,26.10
2018-11-13T09:51:43.655Z,25.70
2018-11-13T09:54:17.647Z,25.83
2018-11-13T09:56:51.660Z,26.57
2018-11-13T09:59:25.700Z,26.10
2018-11-13T10:02:00.019Z,26.43
2018-11-13T10:04:34.505Z,26.17
2018-11-13T10:07:07.885Z,26.73
2018-11-13T10:09:41.867Z,26.20
2018-11-13T10:12:15.897Z,26.27
2018-11-13T10:14:49.876Z,26.47
2018-11-13T10:17:24.019Z,26.27
2018-11-13T10:19:58.009Z,26.50
2018-11-13T10:22:32.013Z,26.40
2018-11-13T10:25:06.974Z,26.47
2018-11-13T10:27:41.515Z,26.27
2018-11-13T10:30:19.696Z,26.23
2018-11-13T10:32:55.215Z,26.87
2018-11-13T10:35:29.200Z,26.55
2018-11-13T10:38:03.313Z,26.15
2018-11-13T10:40:37.523Z,26.40
2018-11-13T10:43:11.524Z,27.10
2018-11-13T10:45:45.628Z,26.70
2018-11-13T10:48:19.720Z,26.30
2018-11-13T10:50:53.717Z,25.97
2018-11-13T10:53:27.762Z,25.93
2018-11-13T10:56:01.893Z,25.97
2018-11-13T10:58:35.939Z,27.00
2018-11-13T11:01:15.277Z,26.80
2018-11-13T11:04:53.062Z,26.20
2018-11-13T11:07:28.168Z,26.77
2018-11-13T11:10:02.216Z,26.03
2018-11-13T11:12:37.348Z,26.47
2018-11-13T11:15:11.397Z,26.57
2018-11-13T11:17:45.515Z,26.23
2018-11-13T11:20:19.502Z,26.47
2018-11-13T11:22:53.576Z,26.23
2018-11-13T11:25:27.693Z,26.97
2018-11-13T11:28:01.623Z,26.20
2018-11-13T11:30:35.752Z,26.67
2018-11-13T11:33:09.777Z,26.70
2018-11-13T11:35:43.880Z,26.68
2018-11-13T11:38:17.879Z,26.97
2018-11-13T11:40:51.887Z,26.90
2018-11-13T11:43:25.896Z,27.07
2018-11-13T11:45:59.900Z,26.70
2018-11-13T11:48:33.961Z,26.57
2018-11-13T11:51:07.956Z,27.02
2018-11-13T11:53:41.982Z,27.10
2018-11-13T11:56:15.964Z,27.10
2018-11-13T11:58:49.969Z,26.87
2018-11-13T12:01:23.981Z,27.30
2018-11-13T12:03:57.994Z,28.40
2018-11-13T12:06:32.028Z,27.22
2018-11-13T12:09:08.877Z,27.27
2018-11-13T12:11:43.073Z,27.00
2018-11-13T12:14:17.100Z,26.93
2018-11-13T12:16:51.161Z,26.97
2018-11-13T12:19:25.218Z,27.67
2018-11-13T12:21:59.159Z,27.23
2018-11-13T12:24:33.192Z,27.42
2018-11-13T12:27:07.297Z,27.40
2018-11-13T12:29:41.481Z,27.90
2018-11-13T12:32:15.491Z,27.67
2018-11-13T12:34:49.567Z,28.00
2018-11-13T12:37:23.571Z,27.90
2018-11-13T12:39:57.797Z,28.63
2018-11-13T12:42:31.809Z,28.00
2018-11-13T12:45:06.875Z,29.82
2018-11-13T12:47:40.852Z,28.55
2018-11-13T12:50:16.190Z,29.37
2018-11-13T12:52:50.316Z,27.82
2018-11-13T12:55:24.400Z,28.27
2018-11-13T12:57:58.352Z,27.67
2018-11-13T13:00:44.265Z,28.75
2018-11-13T13:03:18.288Z,29.07
2018-11-13T13:05:52.417Z,27.73
2018-11-13T13:08:26.591Z,27.80
2018-11-13T13:11:00.593Z,28.62
2018-11-13T13:13:35.292Z,29.10
2018-11-13T13:16:09.309Z,27.37
2018-11-13T13:18:43.486Z,27.77
2018-11-13T13:21:17.477Z,28.30
2018-11-13T13:23:52.148Z,27.67
2018-11-13T13:26:26.195Z,27.95
2018-11-13T13:29:00.220Z,27.87
2018-11-13T13:31:34.330Z,28.32
2018-11-13T13:34:08.356Z,28.02
2018-11-13T13:36:42.382Z,28.23
2018-11-13T13:39:16.373Z,28.40
2018-11-13T13:41:50.413Z,28.07
2018-11-13T13:44:24.508Z,27.67
2018-11-13T13:46:58.516Z,27.10
2018-11-13T13:49:32.525Z,27.13
2018-11-13T13:52:06.556Z,27.37
2018-11-13T13:54:40.572Z,27.87
2018-11-13T13:57:14.561Z,27.80
2018-11-13T13:59:48.679Z,27.65
2018-11-13T14:02:22.609Z,28.00
2018-11-13T14:04:56.617Z,27.27
2018-11-13T14:07:30.604Z,26.82
2018-11-13T14:10:05.005Z,27.35
2018-11-13T14:12:38.988Z,27.70
2018-11-13T14:15:13.833Z,27.40
2018-11-13T14:17:47.793Z,27.40
2018-11-13T14:20:21.907Z,27.37
2018-11-13T14:22:55.971Z,27.13
2018-11-13T14:25:29.968Z,26.90
2018-11-13T14:28:04.103Z,26.95
2018-11-13T14:30:38.343Z,27.32
2018-11-13T14:33:12.946Z,27.07
2018-11-13T14:35:47.059Z,26.85
2018-11-13T14:38:21.000Z,27.20
2018-11-13T14:40:55.101Z,27.03
2018-11-13T14:43:29.087Z,28.12
2018-11-13T14:46:03.096Z,27.35
2018-11-13T14:48:37.100Z,26.85
2018-11-13T14:51:11.103Z,27.58
2018-11-13T14:53:45.188Z,27.15
2018-11-13T14:56:19.283Z,27.25
2018-11-13T14:58:53.288Z,26.75
2018-11-13T15:01:27.319Z,26.75
2018-11-13T15:04:01.288Z,27.07
2018-11-13T15:06:35.298Z,27.30
2018-11-13T15:09:09.316Z,26.82
2018-11-13T15:11:43.768Z,27.07
2018-11-13T15:14:17.771Z,27.60
2018-11-13T15:16:51.759Z,27.05
2018-11-13T15:19:25.868Z,27.05
2018-11-13T15:21:59.855Z,26.68
2018-11-13T15:24:33.924Z,27.32
2018-11-13T15:27:07.908Z,27.37
2018-11-13T15:29:41.920Z,27.32
2018-11-13T15:32:15.959Z,27.13
2018-11-13T15:34:49.987Z,27.45
2018-11-13T15:37:24.037Z,27.70
2018-11-13T15:39:58.081Z,27.62
2018-11-13T15:42:32.080Z,27.30
2018-11-13T15:45:06.194Z,27.93
2018-11-13T15:47:40.804Z,27.22
2018-11-13T15:50:18.220Z,26.80
2018-11-13T15:52:52.238Z,26.73
2018-11-13T15:55:26.327Z,27.02
2018-11-13T15:58:00.845Z,26.90
2018-11-13T16:00:36.125Z,26.85
2018-11-13T16:03:12.888Z,26.90
2018-11-13T16:05:48.119Z,27.10
2018-11-13T16:08:22.320Z,27.22
2018-11-13T16:10:56.203Z,27.65
2018-11-13T16:13:30.343Z,27.85
2018-11-13T16:16:04.377Z,27.90
2018-11-13T16:18:38.500Z,27.58
2018-11-13T16:21:12.482Z,27.73
2018-11-13T16:23:46.444Z,29.80
2018-11-13T16:26:20.491Z,30.90
2018-11-13T16:28:54.496Z,30.87
2018-11-13T16:31:28.595Z,30.32
2018-11-13T16:34:02.604Z,27.50
2018-11-13T16:36:36.795Z,27.13
2018-11-13T16:39:12.916Z,26.82
2018-11-13T16:41:46.971Z,27.62
2018-11-13T16:44:20.971Z,26.20
2018-11-13T16:46:54.984Z,26.23
2018-11-13T16:49:29.004Z,27.37
2018-11-13T16:52:03.096Z,26.60
2018-11-13T16:54:42.584Z,26.40
2018-11-13T16:57:17.408Z,26.40
2018-11-13T16:59:51.474Z,27.27
2018-11-13T17:02:25.529Z,26.90
2018-11-13T17:04:59.524Z,26.67
2018-11-13T17:07:33.700Z,26.55
2018-11-13T17:10:10.066Z,26.80
2018-11-13T17:12:44.461Z,29.03
2018-11-13T17:15:20.505Z,27.45
2018-11-13T17:17:57.280Z,27.00
2018-11-13T17:20:31.440Z,27.10
2018-11-13T17:23:05.708Z,26.43
2018-11-13T17:25:43.249Z,26.80
2018-11-13T17:28:19.956Z,27.70
2018-11-13T17:30:55.224Z,26.47
2018-11-13T17:33:29.239Z,26.75
2018-11-13T17:36:03.467Z,27.17
2018-11-13T17:38:40.553Z,27.93
2018-11-13T17:41:15.788Z,27.73
2018-11-13T17:43:50.176Z,26.45
2018-11-13T17:46:24.181Z,25.77
2018-11-13T17:48:58.179Z,26.43
2018-11-13T17:51:32.771Z,26.07
2018-11-13T17:54:06.748Z,26.03
2018-11-13T17:56:40.800Z,26.30
2018-11-13T17:59:14.776Z,26.90
2018-11-13T18:01:48.833Z,26.33
2018-11-13T18:04:22.840Z,27.17
2018-11-13T18:06:57.035Z,26.73
2018-11-13T18:09:31.085Z,27.03
2018-11-13T18:12:05.244Z,27.07
2018-11-13T18:14:40.419Z,26.80
2018-11-13T18:17:14.440Z,26.27
2018-11-13T18:19:48.456Z,27.17
2018-11-13T18:22:22.536Z,29.57
2018-11-13T18:24:56.726Z,26.53
2018-11-13T18:27:30.843Z,26.40
2018-11-13T18:30:06.328Z,27.10
2018-11-13T18:32:40.913Z,27.53
2018-11-13T18:35:17.439Z,26.70
2018-11-13T18:37:52.184Z,27.90
2018-11-13T18:40:26.593Z,28.97
2018-11-13T18:43:01.501Z,52.67
2018-11-13T18:45:36.827Z,48.60
2018-11-13T18:48:10.884Z,34.77
2018-11-13T18:50:46.500Z,41.43
2018-11-13T18:53:20.592Z,37.87
2018-11-13T18:55:54.676Z,37.47
2018-11-13T18:58:30.879Z,31.53
2018-11-13T19:01:05.690Z,29.50
2018-11-13T19:03:39.757Z,27.97
2018-11-13T19:06:13.870Z,27.90
2018-11-13T19:08:48.000Z,27.83
2018-11-13T19:11:22.149Z,28.53
2018-11-13T19:13:56.135Z,26.93
2018-11-13T19:16:30.157Z,26.73
2018-11-13T19:19:04.311Z,27.07
2018-11-13T19:21:38.380Z,26.47
2018-11-13T19:24:12.455Z,26.93
2018-11-13T19:26:46.715Z,26.77
2018-11-13T19:29:20.723Z,26.47
2018-11-13T19:31:56.128Z,27.73
2018-11-13T19:34:30.128Z,26.93
2018-11-13T19:37:04.227Z,27.53
2018-11-13T19:39:38.258Z,27.43
2018-11-13T19:42:12.388Z,27.33
2018-11-13T19:44:47.251Z,27.33
2018-11-13T19:47:21.075Z,27.73
2018-11-13T19:49:55.286Z,26.97
2018-11-13T19:52:29.262Z,26.67
2018-11-13T19:55:03.335Z,28.23
2018-11-13T19:57:38.329Z,26.60
2018-11-13T20:00:19.498Z,27.00
2018-11-13T20:02:54.364Z,27.50
2018-11-13T20:05:29.304Z,28.53
2018-11-13T20:08:03.491Z,26.77
2018-11-13T20:10:38.360Z,27.30
2018-11-13T20:13:12.344Z,27.13
2018-11-13T20:15:46.527Z,26.53
2018-11-13T20:18:20.571Z,27.17
2018-11-13T20:20:55.648Z,26.33
2018-11-13T20:23:29.659Z,26.93
2018-11-13T20:26:03.684Z,26.43
2018-11-13T20:28:37.825Z,26.30
2018-11-13T20:31:11.908Z,27.60
2018-11-13T20:33:46.061Z,27.03
2018-11-13T20:36:20.076Z,27.77
2018-11-13T20:38:56.155Z,26.73
2018-11-13T20:41:30.311Z,26.73
2018-11-13T20:44:04.447Z,27.77
2018-11-13T20:46:38.461Z,27.97
2018-11-13T20:49:12.487Z,26.67
2018-11-13T20:51:46.504Z,27.03
2018-11-13T20:54:20.652Z,26.73
2018-11-13T20:56:54.772Z,26.90
2018-11-13T20:59:28.752Z,27.47
2018-11-13T21:02:02.986Z,27.90
2018-11-13T21:04:36.979Z,27.13
2018-11-13T21:07:11.080Z,28.17
2018-11-13T21:09:45.089Z,27.63
2018-11-13T21:12:19.196Z,26.97
2018-11-13T21:14:53.171Z,27.70
2018-11-13T21:17:27.338Z,26.80
2018-11-13T21:20:01.287Z,26.70
2018-11-13T21:22:35.295Z,27.33
2018-11-13T21:25:11.260Z,27.63
2018-11-13T21:27:45.363Z,27.70
2018-11-13T21:30:20.595Z,27.30
2018-11-13T21:32:54.805Z,27.40
2018-11-13T21:35:28.789Z,27.43
2018-11-13T21:38:02.796Z,27.53
2018-11-13T21:40:36.816Z,27.60
2018-11-13T21:43:10.817Z,27.37
2018-11-13T21:45:44.903Z,27.13
2018-11-13T21:48:18.924Z,27.27
2018-11-13T21:50:52.940Z,26.77
2018-11-13T21:53:27.012Z,26.90
2018-11-13T21:56:01.029Z,27.80
2018-11-13T21:58:35.096Z,27.33
2018-11-13T22:01:09.129Z,29.03
2018-11-13T22:03:43.201Z,27.93
2018-11-13T22:06:17.172Z,27.50
2018-11-13T22:08:51.161Z,27.87
2018-11-13T22:11:25.260Z,27.73
2018-11-13T22:13:59.356Z,27.83
2018-11-13T22:16:33.415Z,27.47
2018-11-13T22:19:07.372Z,28.00
2018-11-13T22:21:41.381Z,27.33
2018-11-13T22:24:15.496Z,27.47
2018-11-13T22:26:49.510Z,28.37
2018-11-13T22:29:23.657Z,27.67
2018-11-13T22:31:57.671Z,27.10
2018-11-13T22:34:31.701Z,27.50
2018-11-13T22:37:06.005Z,27.50
2018-11-13T22:39:39.999Z,28.30
2018-11-13T22:42:14.127Z,27.83
2018-11-13T22:44:48.128Z,28.33
2018-11-13T22:47:22.123Z,27.10
2018-11-13T22:49:56.112Z,28.87
2018-11-13T22:52:30.131Z,31.63
2018-11-13T22:55:04.263Z,30.77
2018-11-13T22:57:38.310Z,31.70
2018-11-13T23:00:16.282Z,30.60
2018-11-13T23:02:51.207Z,29.27
2018-11-13T23:05:25.184Z,29.10
2018-11-13T23:07:59.212Z,28.37
2018-11-13T23:10:33.235Z,27.73
2018-11-13T23:13:07.369Z,27.33
2018-11-13T23:15:41.611Z,28.07
2018-11-13T23:18:15.623Z,27.57
2018-11-13T23:20:49.631Z,26.70
2018-11-13T23:23:23.695Z,27.30
2018-11-13T23:25:57.746Z,27.23
2018-11-13T23:28:31.877Z,27.13
2018-11-13T23:31:05.917Z,27.80
2018-11-13T23:33:39.962Z,26.93
2018-11-13T23:36:14.040Z,27.20
2018-11-13T23:38:48.032Z,27.17
2018-11-13T23:41:22.105Z,27.80
2018-11-13T23:43:56.108Z,27.60
2018-11-13T23:46:30.084Z,27.33
2018-11-13T23:49:04.131Z,26.93
2018-11-13T23:51:38.140Z,27.13
2018-11-13T23:54:12.175Z,26.93
2018-11-13T23:56:46.184Z,26.97
2018-11-13T23:59:20.247Z,27.20
